Strona główna
METAR-TAF:

METAR-TAF

Lotnisko :

Port lotniczy Siem Reap

Siem Reap, Kambodża

Szerokość geograficzna: 13-22N, Długość geograficzna: 103-51E, wysokość: 15 m

Aktualna obserwacja pogody

Raport powstał 31 minut temu, godzina 21:30 UTC
Wiatr 3 kt od wschód
Temperatura 24°C
Wilgotność 54%
Ciśnienie 1013 hPa
Widzialność: 9000 m
Mało chmury na wysokości 1700 ft

METAR: VDSR 232130Z 09003KT 9000 FEW017 24/14 Q1013

czas: 05:01 (22:01 UTC)

Prognoza

Raport powstał 5 godziny i 1 minut temu, godzina 17:00 UTC
Prognoza ważna od 23 godzina 18 UTC do 24 godzina 12 UTC
Wiatr 5 kt od północno-północny wschód
Widzialność 10 km lub więcej
Mało chmury na wysokości 1700 ft

TAF: VDSR 231700Z 2318/2412 02005KT 9999 FEW017

Obserwacja i prognoza pogody dla ponad 4000 lotnisk (raport METAR i TAF).

Dostępne stacje oznaczono żółtymi i czerwonymi punktami na mapie.

Najedź kursorem aby zobaczyć nazwę stacji.

Kliknij aby zobaczyć obserwacje i prognozy pogody.

Aby zmienić mapę: kliknij na zielony przycisk z czarnym krzyżykiem, aby powiększyć; na zielony przycisk z myślnikiem, aby pomniejszyć; na zielone strzałki, aby przejść do map sąsiednich.


METAR-TAF: